sensor_id;sensor_type;location;lat;lon;timestamp;pressure;altitude;pressure_sealevel;temperature;humidity
17615;BME280;8926;49.720;6.576;2023-08-30T00:00:36;99106.72;;;15.20;86.94
17615;BME280;8926;49.720;6.576;2023-08-30T00:03:01;99100.63;;;15.19;86.81
17615;BME280;8926;49.720;6.576;2023-08-30T00:05:27;99099.66;;;15.20;86.24
17615;BME280;8926;49.720;6.576;2023-08-30T00:07:53;99098.13;;;15.18;86.61
17615;BME280;8926;49.720;6.576;2023-08-30T00:10:18;99099.09;;;15.17;87.04
17615;BME280;8926;49.720;6.576;2023-08-30T00:12:44;99103.38;;;15.18;87.00
17615;BME280;8926;49.720;6.576;2023-08-30T00:15:09;99101.59;;;15.18;87.06
17615;BME280;8926;49.720;6.576;2023-08-30T00:17:34;99093.81;;;15.17;86.13
17615;BME280;8926;49.720;6.576;2023-08-30T00:20:00;99096.28;;;15.09;86.88
17615;BME280;8926;49.720;6.576;2023-08-30T00:22:25;99090.34;;;15.07;86.21
17615;BME280;8926;49.720;6.576;2023-08-30T00:24:52;99095.59;;;15.07;85.88
17615;BME280;8926;49.720;6.576;2023-08-30T00:27:18;99096.41;;;15.07;87.23
17615;BME280;8926;49.720;6.576;2023-08-30T00:29:45;99096.69;;;15.04;87.46
17615;BME280;8926;49.720;6.576;2023-08-30T00:32:10;99107.91;;;15.06;87.03
17615;BME280;8926;49.720;6.576;2023-08-30T00:34:36;99106.78;;;15.09;86.54
17615;BME280;8926;49.720;6.576;2023-08-30T00:37:02;99111.09;;;15.10;86.69
17615;BME280;8926;49.720;6.576;2023-08-30T00:39:27;99107.50;;;15.11;87.19
17615;BME280;8926;49.720;6.576;2023-08-30T00:41:53;99111.09;;;15.10;87.47
17615;BME280;8926;49.720;6.576;2023-08-30T00:44:18;99114.44;;;15.12;87.17
17615;BME280;8926;49.720;6.576;2023-08-30T00:46:43;99104.59;;;15.14;85.97
17615;BME280;8926;49.720;6.576;2023-08-30T00:49:09;99109.44;;;15.09;87.04
17615;BME280;8926;49.720;6.576;2023-08-30T00:51:35;99097.53;;;15.05;86.35
17615;BME280;8926;49.720;6.576;2023-08-30T00:54:01;99092.25;;;15.05;86.24
17615;BME280;8926;49.720;6.576;2023-08-30T00:56:27;99099.44;;;15.03;87.00
17615;BME280;8926;49.720;6.576;2023-08-30T00:58:53;99096.13;;;15.01;87.81
17615;BME280;8926;49.720;6.576;2023-08-30T01:01:19;99093.34;;;15.02;87.57
17615;BME280;8926;49.720;6.576;2023-08-30T01:03:45;99090.59;;;15.04;86.47
17615;BME280;8926;49.720;6.576;2023-08-30T01:06:10;99094.31;;;15.01;87.30
17615;BME280;8926;49.720;6.576;2023-08-30T01:08:36;99092.78;;;14.99;88.09
17615;BME280;8926;49.720;6.576;2023-08-30T01:11:11;99091.94;;;14.98;87.46
17615;BME280;8926;49.720;6.576;2023-08-30T01:13:43;99084.44;;;14.93;87.09
17615;BME280;8926;49.720;6.576;2023-08-30T01:16:11;99089.25;;;14.88;87.19
17615;BME280;8926;49.720;6.576;2023-08-30T01:18:38;99083.28;;;14.86;89.62
17615;BME280;8926;49.720;6.576;2023-08-30T01:21:08;99081.50;;;14.87;90.34
17615;BME280;8926;49.720;6.576;2023-08-30T01:23:58;99079.00;;;14.85;89.58
17615;BME280;8926;49.720;6.576;2023-08-30T01:27:07;99085.91;;;14.86;89.10
17615;BME280;8926;49.720;6.576;2023-08-30T01:29:33;99080.66;;;14.86;88.30
17615;BME280;8926;49.720;6.576;2023-08-30T01:32:00;99084.00;;;14.88;88.01
17615;BME280;8926;49.720;6.576;2023-08-30T01:34:26;99081.63;;;14.85;88.19
17615;BME280;8926;49.720;6.576;2023-08-30T01:36:52;99082.31;;;14.87;87.89
17615;BME280;8926;49.720;6.576;2023-08-30T01:39:17;99079.44;;;14.90;87.34
17615;BME280;8926;49.720;6.576;2023-08-30T01:41:43;99072.50;;;14.89;86.22
17615;BME280;8926;49.720;6.576;2023-08-30T01:44:10;99071.34;;;14.82;87.58
17615;BME280;8926;49.720;6.576;2023-08-30T01:46:37;99080.75;;;14.75;87.63
17615;BME280;8926;49.720;6.576;2023-08-30T01:49:04;99081.00;;;14.72;87.91
17615;BME280;8926;49.720;6.576;2023-08-30T01:51:31;99076.00;;;14.69;87.98
17615;BME280;8926;49.720;6.576;2023-08-30T01:53:57;99074.22;;;14.70;88.11
17615;BME280;8926;49.720;6.576;2023-08-30T01:56:23;99073.50;;;14.68;88.37
17615;BME280;8926;49.720;6.576;2023-08-30T01:58:48;99072.22;;;14.62;87.97
17615;BME280;8926;49.720;6.576;2023-08-30T02:01:14;99073.06;;;14.63;87.93
17615;BME280;8926;49.720;6.576;2023-08-30T02:03:43;99061.00;;;14.60;88.05
17615;BME280;8926;49.720;6.576;2023-08-30T02:06:13;99061.25;;;14.57;87.98
17615;BME280;8926;49.720;6.576;2023-08-30T02:09:03;99066.50;;;14.57;88.22
17615;BME280;8926;49.720;6.576;2023-08-30T02:11:32;99061.38;;;14.55;87.72
17615;BME280;8926;49.720;6.576;2023-08-30T02:14:00;99060.69;;;14.53;87.51
17615;BME280;8926;49.720;6.576;2023-08-30T02:16:27;99067.03;;;14.51;87.80
17615;BME280;8926;49.720;6.576;2023-08-30T02:18:53;99063.72;;;14.49;87.90
17615;BME280;8926;49.720;6.576;2023-08-30T02:21:20;99067.03;;;14.51;87.80
17615;BME280;8926;49.720;6.576;2023-08-30T02:23:52;99069.22;;;14.46;88.58
17615;BME280;8926;49.720;6.576;2023-08-30T02:26:19;99064.22;;;14.43;88.71
17615;BME280;8926;49.720;6.576;2023-08-30T02:28:44;99057.28;;;14.42;89.75
17615;BME280;8926;49.720;6.576;2023-08-30T02:31:10;99062.66;;;14.40;90.19
17615;BME280;8926;49.720;6.576;2023-08-30T02:33:35;99054.75;;;14.40;89.35
17615;BME280;8926;49.720;6.576;2023-08-30T02:36:02;99057.50;;;14.39;90.04
17615;BME280;8926;49.720;6.576;2023-08-30T02:38:28;99060.88;;;14.41;90.12
17615;BME280;8926;49.720;6.576;2023-08-30T02:40:53;99054.88;;;14.39;89.88
17615;BME280;8926;49.720;6.576;2023-08-30T02:43:18;99060.25;;;14.37;89.83
17615;BME280;8926;49.720;6.576;2023-08-30T02:45:44;99056.81;;;14.37;90.62
17615;BME280;8926;49.720;6.576;2023-08-30T02:48:09;99053.09;;;14.39;89.60
17615;BME280;8926;49.720;6.576;2023-08-30T02:50:34;99043.66;;;14.37;89.58
17615;BME280;8926;49.720;6.576;2023-08-30T02:52:59;99045.59;;;14.35;90.22
17615;BME280;8926;49.720;6.576;2023-08-30T02:55:25;99048.91;;;14.37;91.95
17615;BME280;8926;49.720;6.576;2023-08-30T02:57:50;99044.97;;;14.42;92.38
17615;BME280;8926;49.720;6.576;2023-08-30T03:00:16;99037.69;;;14.46;91.80
17615;BME280;8926;49.720;6.576;2023-08-30T03:02:41;99037.44;;;14.49;91.81
17615;BME280;8926;49.720;6.576;2023-08-30T03:05:07;99036.47;;;14.50;90.53
17615;BME280;8926;49.720;6.576;2023-08-30T03:07:32;99046.03;;;14.51;89.65
17615;BME280;8926;49.720;6.576;2023-08-30T03:09:57;99035.50;;;14.51;90.02
17615;BME280;8926;49.720;6.576;2023-08-30T03:12:23;99047.69;;;14.52;88.76
17615;BME280;8926;49.720;6.576;2023-08-30T03:14:48;99049.59;;;14.50;89.57
17615;BME280;8926;49.720;6.576;2023-08-30T03:17:13;99046.03;;;14.51;89.93
17615;BME280;8926;49.720;6.576;2023-08-30T03:19:39;99032.63;;;14.54;88.99
17615;BME280;8926;49.720;6.576;2023-08-30T03:22:04;99036.47;;;14.50;88.47
17615;BME280;8926;49.720;6.576;2023-08-30T03:24:29;99030.19;;;14.41;88.17
17615;BME280;8926;49.720;6.576;2023-08-30T03:26:54;99044.16;;;14.31;88.81
17615;BME280;8926;49.720;6.576;2023-08-30T03:29:20;99035.88;;;14.25;88.89
17615;BME280;8926;49.720;6.576;2023-08-30T03:31:45;99032.53;;;14.23;88.93
17615;BME280;8926;49.720;6.576;2023-08-30T03:34:10;99039.50;;;14.13;89.32
17615;BME280;8926;49.720;6.576;2023-08-30T03:36:37;99037.38;;;14.07;89.57
17615;BME280;8926;49.720;6.576;2023-08-30T03:39:02;99039.56;;;14.02;89.57
17615;BME280;8926;49.720;6.576;2023-08-30T03:41:28;99041.72;;;13.97;90.11
17615;BME280;8926;49.720;6.576;2023-08-30T03:43:53;99035.50;;;13.98;90.89
17615;BME280;8926;49.720;6.576;2023-08-30T03:46:18;99041.72;;;13.97;90.13
17615;BME280;8926;49.720;6.576;2023-08-30T03:48:43;99048.88;;;13.95;89.40
17615;BME280;8926;49.720;6.576;2023-08-30T03:51:09;99041.72;;;13.97;88.71
17615;BME280;8926;49.720;6.576;2023-08-30T03:53:34;99038.13;;;13.98;88.55
17615;BME280;8926;49.720;6.576;2023-08-30T03:55:59;99044.22;;;13.99;87.88
17615;BME280;8926;49.720;6.576;2023-08-30T03:58:25;99030.97;;;14.00;87.90
17615;BME280;8926;49.720;6.576;2023-08-30T04:00:50;99039.56;;;14.02;88.10
17615;BME280;8926;49.720;6.576;2023-08-30T04:03:16;99025.13;;;13.97;87.94
17615;BME280;8926;49.720;6.576;2023-08-30T04:05:42;99043.16;;;14.01;87.86
17615;BME280;8926;49.720;6.576;2023-08-30T04:08:08;99035.94;;;14.03;87.52
17615;BME280;8926;49.720;6.576;2023-08-30T04:10:38;99033.78;;;14.08;87.81
17615;BME280;8926;49.720;6.576;2023-08-30T04:13:04;99024.22;;;14.07;87.94
17615;BME280;8926;49.720;6.576;2023-08-30T04:15:35;99028.28;;;14.11;88.18
17615;BME280;8926;49.720;6.576;2023-08-30T04:18:02;99028.03;;;14.14;87.88
17615;BME280;8926;49.720;6.576;2023-08-30T04:20:27;99011.31;;;14.15;87.81
17615;BME280;8926;49.720;6.576;2023-08-30T04:22:53;99018.94;;;14.18;87.86
17615;BME280;8926;49.720;6.576;2023-08-30T04:25:20;99018.69;;;14.21;87.60
17615;BME280;8926;49.720;6.576;2023-08-30T04:27:45;99022.28;;;14.20;87.71
17615;BME280;8926;49.720;6.576;2023-08-30T04:30:11;99022.28;;;14.20;87.86
17615;BME280;8926;49.720;6.576;2023-08-30T04:32:36;99017.59;;;14.24;88.23
17615;BME280;8926;49.720;6.576;2023-08-30T04:35:02;99024.53;;;14.25;88.05
17615;BME280;8926;49.720;6.576;2023-08-30T04:37:30;99018.44;;;14.24;87.85
17615;BME280;8926;49.720;6.576;2023-08-30T04:39:56;99022.03;;;14.23;88.75
17615;BME280;8926;49.720;6.576;2023-08-30T04:42:22;99011.25;;;14.26;89.08
17615;BME280;8926;49.720;6.576;2023-08-30T04:44:47;99008.50;;;14.28;88.45
17615;BME280;8926;49.720;6.576;2023-08-30T04:47:12;99010.97;;;14.30;88.30
17615;BME280;8926;49.720;6.576;2023-08-30T04:49:38;99018.19;;;14.27;88.55
17615;BME280;8926;49.720;6.576;2023-08-30T04:52:04;99020.69;;;14.29;89.13
17615;BME280;8926;49.720;6.576;2023-08-30T04:54:29;99028.41;;;14.31;89.17
17615;BME280;8926;49.720;6.576;2023-08-30T04:56:54;99031.50;;;14.36;88.27
17615;BME280;8926;49.720;6.576;2023-08-30T04:59:20;99023.16;;;14.31;88.24
17615;BME280;8926;49.720;6.576;2023-08-30T05:01:45;99020.69;;;14.29;88.79
17615;BME280;8926;49.720;6.576;2023-08-30T05:04:12;99018.44;;;14.24;89.26
17615;BME280;8926;49.720;6.576;2023-08-30T05:06:37;99023.69;;;14.24;89.96
17615;BME280;8926;49.720;6.576;2023-08-30T05:09:03;99025.34;;;14.25;88.76
17615;BME280;8926;49.720;6.576;2023-08-30T05:11:28;99023.69;;;14.24;88.82
17615;BME280;8926;49.720;6.576;2023-08-30T05:13:57;99027.84;;;14.27;88.96
17615;BME280;8926;49.720;6.576;2023-08-30T05:16:22;99023.16;;;14.31;88.72
17615;BME280;8926;49.720;6.576;2023-08-30T05:18:47;99025.94;;;14.29;88.43
17615;BME280;8926;49.720;6.576;2023-08-30T05:21:13;99014.59;;;14.29;88.84
17615;BME280;8926;49.720;6.576;2023-08-30T05:23:39;99012.63;;;14.31;89.31
17615;BME280;8926;49.720;6.576;2023-08-30T05:26:10;99018.59;;;14.33;89.36
17615;BME280;8926;49.720;6.576;2023-08-30T05:28:35;99024.56;;;14.35;89.04
17615;BME280;8926;49.720;6.576;2023-08-30T05:31:00;99010.72;;;14.33;88.32
17615;BME280;8926;49.720;6.576;2023-08-30T05:33:26;99019.44;;;14.33;88.20
17615;BME280;8926;49.720;6.576;2023-08-30T05:35:51;99015.56;;;14.27;87.56
17615;BME280;8926;49.720;6.576;2023-08-30T05:38:16;99006.50;;;14.20;88.35
17615;BME280;8926;49.720;6.576;2023-08-30T05:40:42;99022.41;;;14.19;89.99
17615;BME280;8926;49.720;6.576;2023-08-30T05:43:10;99016.56;;;14.15;87.76
17615;BME280;8926;49.720;6.576;2023-08-30T05:45:35;99015.41;;;14.08;88.10
17615;BME280;8926;49.720;6.576;2023-08-30T05:48:00;99017.13;;;13.98;88.77
17615;BME280;8926;49.720;6.576;2023-08-30T05:50:26;99008.09;;;13.91;89.61
17615;BME280;8926;49.720;6.576;2023-08-30T05:52:51;99016.66;;;13.93;90.38
17615;BME280;8926;49.720;6.576;2023-08-30T05:55:16;99012.38;;;13.92;88.93
17615;BME280;8926;49.720;6.576;2023-08-30T05:57:42;99013.13;;;13.83;89.61
17615;BME280;8926;49.720;6.576;2023-08-30T06:00:07;99018.38;;;13.83;89.29
17615;BME280;8926;49.720;6.576;2023-08-30T06:02:34;99021.75;;;13.74;89.39
17615;BME280;8926;49.720;6.576;2023-08-30T06:04:59;99020.84;;;13.64;90.14
17615;BME280;8926;49.720;6.576;2023-08-30T06:07:24;99029.41;;;13.66;89.89
17615;BME280;8926;49.720;6.576;2023-08-30T06:09:49;99028.94;;;13.61;90.09
17615;BME280;8926;49.720;6.576;2023-08-30T06:12:15;99017.03;;;13.56;91.03
17615;BME280;8926;49.720;6.576;2023-08-30T06:14:40;99013.44;;;13.57;90.35
17615;BME280;8926;49.720;6.576;2023-08-30T06:17:05;99014.53;;;13.55;91.16
17615;BME280;8926;49.720;6.576;2023-08-30T06:19:31;99016.72;;;13.50;91.20
17615;BME280;8926;49.720;6.576;2023-08-30T06:21:56;99017.53;;;13.50;90.96
17615;BME280;8926;49.720;6.576;2023-08-30T06:24:21;99019.69;;;13.45;91.47
17615;BME280;8926;49.720;6.576;2023-08-30T06:26:47;99015.88;;;13.49;91.49
17615;BME280;8926;49.720;6.576;2023-08-30T06:29:12;99015.59;;;13.52;91.36
17615;BME280;8926;49.720;6.576;2023-08-30T06:31:37;99012.63;;;13.57;92.44
17615;BME280;8926;49.720;6.576;2023-08-30T06:34:04;99015.09;;;13.70;91.76
17615;BME280;8926;49.720;6.576;2023-08-30T06:36:29;99019.97;;;13.74;92.12
17615;BME280;8926;49.720;6.576;2023-08-30T06:38:55;99021.94;;;13.82;91.18
17615;BME280;8926;49.720;6.576;2023-08-30T06:41:20;99015.00;;;13.92;90.67
17615;BME280;8926;49.720;6.576;2023-08-30T06:43:45;99018.47;;;13.92;91.31
17615;BME280;8926;49.720;6.576;2023-08-30T06:46:11;99016.16;;;13.99;90.26
17615;BME280;8926;49.720;6.576;2023-08-30T06:48:36;99017.97;;;13.99;90.09
17615;BME280;8926;49.720;6.576;2023-08-30T06:51:01;99020.13;;;13.93;90.65
17615;BME280;8926;49.720;6.576;2023-08-30T06:53:27;99013.78;;;13.96;90.86
17615;BME280;8926;49.720;6.576;2023-08-30T06:55:59;99022.38;;;13.98;90.85
17615;BME280;8926;49.720;6.576;2023-08-30T06:58:25;99021.84;;;14.04;90.60
17615;BME280;8926;49.720;6.576;2023-08-30T07:00:51;99019.44;;;14.12;90.01
17615;BME280;8926;49.720;6.576;2023-08-30T07:03:16;99013.22;;;14.13;90.12
17615;BME280;8926;49.720;6.576;2023-08-30T07:05:41;99014.19;;;14.12;89.63
17615;BME280;8926;49.720;6.576;2023-08-30T07:08:08;99015.16;;;14.11;89.90
17615;BME280;8926;49.720;6.576;2023-08-30T07:10:34;99016.34;;;14.07;90.63
17615;BME280;8926;49.720;6.576;2023-08-30T07:12:59;99016.69;;;14.14;90.34
17615;BME280;8926;49.720;6.576;2023-08-30T07:15:25;99017.59;;;14.24;90.00
17615;BME280;8926;49.720;6.576;2023-08-30T07:17:50;99018.47;;;14.34;89.64
17615;BME280;8926;49.720;6.576;2023-08-30T07:20:15;99023.31;;;14.50;89.53
17615;BME280;8926;49.720;6.576;2023-08-30T07:22:41;99023.44;;;14.69;88.51
17615;BME280;8926;49.720;6.576;2023-08-30T07:25:07;99015.50;;;14.90;88.79
17615;BME280;8926;49.720;6.576;2023-08-30T07:27:33;99014.59;;;15.10;87.67
17615;BME280;8926;49.720;6.576;2023-08-30T07:29:59;99015.72;;;15.57;86.42
17615;BME280;8926;49.720;6.576;2023-08-30T07:32:24;99008.25;;;15.82;84.81
17615;BME280;8926;49.720;6.576;2023-08-30T07:34:49;99010.75;;;15.93;83.96
17615;BME280;8926;49.720;6.576;2023-08-30T07:37:22;99008.81;;;16.05;84.59
17615;BME280;8926;49.720;6.576;2023-08-30T07:39:48;99004.19;;;16.36;83.83
17615;BME280;8926;49.720;6.576;2023-08-30T07:42:16;99001.50;;;16.55;81.91
17615;BME280;8926;49.720;6.576;2023-08-30T07:44:41;98998.06;;;16.45;81.30
17615;BME280;8926;49.720;6.576;2023-08-30T07:47:07;99000.09;;;16.70;80.11
17615;BME280;8926;49.720;6.576;2023-08-30T07:49:32;99000.00;;;16.89;80.90
17615;BME280;8926;49.720;6.576;2023-08-30T07:51:57;99009.69;;;16.99;79.82
17615;BME280;8926;49.720;6.576;2023-08-30T07:54:23;99008.31;;;16.94;79.58
17615;BME280;8926;49.720;6.576;2023-08-30T07:56:48;99013.13;;;16.81;79.22
17615;BME280;8926;49.720;6.576;2023-08-30T07:59:13;99010.34;;;16.83;79.48
17615;BME280;8926;49.720;6.576;2023-08-30T08:01:38;99018.78;;;16.86;79.51
17615;BME280;8926;49.720;6.576;2023-08-30T08:04:04;99022.22;;;16.96;79.54
17615;BME280;8926;49.720;6.576;2023-08-30T08:06:29;99014.66;;;17.11;78.56
17615;BME280;8926;49.720;6.576;2023-08-30T08:08:55;99015.78;;;17.09;78.74
17615;BME280;8926;49.720;6.576;2023-08-30T08:11:20;99012.06;;;17.29;78.99
17615;BME280;8926;49.720;6.576;2023-08-30T08:13:45;99023.84;;;17.35;78.20
17615;BME280;8926;49.720;6.576;2023-08-30T08:16:11;99017.03;;;17.32;78.20
17615;BME280;8926;49.720;6.576;2023-08-30T08:18:36;99020.38;;;17.34;78.46
17615;BME280;8926;49.720;6.576;2023-08-30T08:21:02;99010.41;;;17.28;78.70
17615;BME280;8926;49.720;6.576;2023-08-30T08:23:27;99013.00;;;17.38;78.18
17615;BME280;8926;49.720;6.576;2023-08-30T08:25:59;99009.09;;;17.59;77.24
17615;BME280;8926;49.720;6.576;2023-08-30T08:28:24;99005.88;;;17.66;76.95
17615;BME280;8926;49.720;6.576;2023-08-30T08:30:50;99007.56;;;17.67;77.92
17615;BME280;8926;49.720;6.576;2023-08-30T08:33:17;99004.06;;;17.84;78.27
17615;BME280;8926;49.720;6.576;2023-08-30T08:35:43;98990.19;;;18.25;77.01
17615;BME280;8926;49.720;6.576;2023-08-30T08:38:10;98992.50;;;18.72;75.23
17615;BME280;8926;49.720;6.576;2023-08-30T08:40:38;98992.66;;;19.05;75.06
17615;BME280;8926;49.720;6.576;2023-08-30T08:43:06;98987.88;;;19.50;73.46
17615;BME280;8926;49.720;6.576;2023-08-30T08:45:35;98976.16;;;19.77;72.23
17615;BME280;8926;49.720;6.576;2023-08-30T08:48:03;98972.03;;;19.91;71.66
17615;BME280;8926;49.720;6.576;2023-08-30T08:50:29;98965.41;;;19.95;70.50
17615;BME280;8926;49.720;6.576;2023-08-30T08:52:55;98975.69;;;20.14;70.45
17615;BME280;8926;49.720;6.576;2023-08-30T08:55:21;98970.38;;;20.39;69.41
17615;BME280;8926;49.720;6.576;2023-08-30T08:57:48;98970.34;;;20.30;69.17
17615;BME280;8926;49.720;6.576;2023-08-30T09:00:13;98966.31;;;20.75;69.34
17615;BME280;8926;49.720;6.576;2023-08-30T09:02:40;98967.25;;;20.90;67.96
17615;BME280;8926;49.720;6.576;2023-08-30T09:05:07;98966.34;;;21.06;67.83
17615;BME280;8926;49.720;6.576;2023-08-30T09:07:32;98955.84;;;21.13;66.69
17615;BME280;8926;49.720;6.576;2023-08-30T09:09:58;98958.59;;;21.36;66.91
17615;BME280;8926;49.720;6.576;2023-08-30T09:12:24;98950.03;;;21.48;65.62
17615;BME280;8926;49.720;6.576;2023-08-30T09:14:55;98952.75;;;21.40;66.45
17615;BME280;8926;49.720;6.576;2023-08-30T09:17:21;98950.28;;;21.61;65.72
17615;BME280;8926;49.720;6.576;2023-08-30T09:19:46;98944.84;;;21.78;66.30
17615;BME280;8926;49.720;6.576;2023-08-30T09:22:12;98940.00;;;21.81;64.86
17615;BME280;8926;49.720;6.576;2023-08-30T09:24:38;98938.00;;;22.06;64.38
17615;BME280;8926;49.720;6.576;2023-08-30T09:27:07;98938.03;;;22.35;63.62
17615;BME280;8926;49.720;6.576;2023-08-30T09:29:32;98933.16;;;22.24;64.46
17615;BME280;8926;49.720;6.576;2023-08-30T09:31:57;98930.25;;;22.49;62.71
17615;BME280;8926;49.720;6.576;2023-08-30T09:34:23;98926.66;;;22.42;62.60
17615;BME280;8926;49.720;6.576;2023-08-30T09:36:52;98923.31;;;22.10;61.85
17615;BME280;8926;49.720;6.576;2023-08-30T09:39:17;98920.75;;;22.02;61.59
17615;BME280;8926;49.720;6.576;2023-08-30T09:41:44;98911.22;;;21.85;62.16
17615;BME280;8926;49.720;6.576;2023-08-30T09:44:14;98912.59;;;21.81;61.65
17615;BME280;8926;49.720;6.576;2023-08-30T09:46:44;98912.66;;;21.73;61.77
17615;BME280;8926;49.720;6.576;2023-08-30T09:49:10;98913.19;;;21.45;61.90
17615;BME280;8926;49.720;6.576;2023-08-30T09:51:38;98917.97;;;21.27;61.96
17615;BME280;8926;49.720;6.576;2023-08-30T09:54:18;98908.72;;;21.07;62.43
17615;BME280;8926;49.720;6.576;2023-08-30T09:56:44;98922.41;;;20.95;63.90
17615;BME280;8926;49.720;6.576;2023-08-30T09:59:14;98925.09;;;20.87;63.01
17615;BME280;8926;49.720;6.576;2023-08-30T10:01:42;98923.84;;;20.75;64.71
17615;BME280;8926;49.720;6.576;2023-08-30T10:04:09;98920.88;;;20.62;64.38
17615;BME280;8926;49.720;6.576;2023-08-30T10:06:39;98919.06;;;20.54;65.80
17615;BME280;8926;49.720;6.576;2023-08-30T10:09:06;98915.44;;;20.55;66.11
17615;BME280;8926;49.720;6.576;2023-08-30T10:11:37;98910.19;;;21.17;65.05
17615;BME280;8926;49.720;6.576;2023-08-30T10:14:03;98897.69;;;21.72;63.41
17615;BME280;8926;49.720;6.576;2023-08-30T10:16:35;98893.88;;;21.89;61.50
17615;BME280;8926;49.720;6.576;2023-08-30T10:19:08;98908.69;;;21.68;61.92
17615;BME280;8926;49.720;6.576;2023-08-30T10:21:35;98897.59;;;21.42;61.84
17615;BME280;8926;49.720;6.576;2023-08-30T10:24:01;98892.75;;;21.68;61.58
17615;BME280;8926;49.720;6.576;2023-08-30T10:26:29;98891.69;;;21.78;59.13
17615;BME280;8926;49.720;6.576;2023-08-30T10:28:56;98877.81;;;22.05;59.36
17615;BME280;8926;49.720;6.576;2023-08-30T10:31:22;98880.53;;;21.97;60.01
17615;BME280;8926;49.720;6.576;2023-08-30T10:33:49;98875.28;;;21.89;60.27
17615;BME280;8926;49.720;6.576;2023-08-30T10:36:25;98870.47;;;21.70;60.74
17615;BME280;8926;49.720;6.576;2023-08-30T10:38:51;98879.16;;;21.63;60.60
17615;BME280;8926;49.720;6.576;2023-08-30T10:41:26;98868.66;;;21.47;60.48
17615;BME280;8926;49.720;6.576;2023-08-30T10:43:54;98862.53;;;21.24;60.94
17615;BME280;8926;49.720;6.576;2023-08-30T10:48:55;98871.44;;;20.69;62.31
17615;BME280;8926;49.720;6.576;2023-08-30T10:51:36;98873.78;;;20.56;62.55
17615;BME280;8926;49.720;6.576;2023-08-30T10:54:10;98876.50;;;20.31;63.22
17615;BME280;8926;49.720;6.576;2023-08-30T10:56:45;98875.56;;;20.08;64.28
17615;BME280;8926;49.720;6.576;2023-08-30T10:59:19;98878.59;;;19.97;65.21
17615;BME280;8926;49.720;6.576;2023-08-30T11:01:45;98889.03;;;19.90;65.93
17615;BME280;8926;49.720;6.576;2023-08-30T11:04:12;98883.06;;;19.80;66.05
17615;BME280;8926;49.720;6.576;2023-08-30T11:06:38;98882.56;;;19.60;66.01
17615;BME280;8926;49.720;6.576;2023-08-30T11:09:04;98877.94;;;19.54;66.43
17615;BME280;8926;49.720;6.576;2023-08-30T11:11:30;98881.88;;;19.50;66.71
17615;BME280;8926;49.720;6.576;2023-08-30T11:14:06;98876.78;;;19.57;66.80
17615;BME280;8926;49.720;6.576;2023-08-30T11:16:33;98877.28;;;19.60;66.74
17615;BME280;8926;49.720;6.576;2023-08-30T11:19:00;98876.28;;;19.61;67.01
17615;BME280;8926;49.720;6.576;2023-08-30T11:21:26;98872.47;;;19.64;67.42
17615;BME280;8926;49.720;6.576;2023-08-30T11:23:52;98882.59;;;19.69;66.56
17615;BME280;8926;49.720;6.576;2023-08-30T11:26:17;98870.31;;;19.59;66.32
17615;BME280;8926;49.720;6.576;2023-08-30T11:28:42;98873.97;;;19.58;66.28
17615;BME280;8926;49.720;6.576;2023-08-30T11:31:21;98876.28;;;19.61;66.47
17615;BME280;8926;49.720;6.576;2023-08-30T11:33:55;98873.63;;;19.70;66.20
17615;BME280;8926;49.720;6.576;2023-08-30T11:36:31;98867.66;;;19.76;65.93
17615;BME280;8926;49.720;6.576;2023-08-30T11:38:57;98865.16;;;19.82;65.70
17615;BME280;8926;49.720;6.576;2023-08-30T11:41:24;98867.31;;;19.95;64.42
17615;BME280;8926;49.720;6.576;2023-08-30T11:43:51;98858.00;;;20.07;63.61
17615;BME280;8926;49.720;6.576;2023-08-30T11:46:17;98863.94;;;20.17;63.13
17615;BME280;8926;49.720;6.576;2023-08-30T11:48:43;98859.97;;;20.21;63.06
17615;BME280;8926;49.720;6.576;2023-08-30T11:51:09;98862.28;;;20.16;62.45
17615;BME280;8926;49.720;6.576;2023-08-30T11:53:36;98849.69;;;20.18;62.34
17615;BME280;8926;49.720;6.576;2023-08-30T11:56:02;98854.66;;;20.21;62.84
17615;BME280;8926;49.720;6.576;2023-08-30T11:58:32;98843.34;;;20.27;63.41
17615;BME280;8926;49.720;6.576;2023-08-30T12:00:58;98850.69;;;20.25;62.91
17615;BME280;8926;49.720;6.576;2023-08-30T12:03:27;98854.94;;;20.34;63.10
17615;BME280;8926;49.720;6.576;2023-08-30T12:05:53;98848.97;;;20.41;62.98
17615;BME280;8926;49.720;6.576;2023-08-30T12:08:30;98841.50;;;20.36;61.62
17615;BME280;8926;49.720;6.576;2023-08-30T12:10:56;98846.50;;;20.31;62.64
17615;BME280;8926;49.720;6.576;2023-08-30T12:13:26;98844.66;;;20.31;61.80
17615;BME280;8926;49.720;6.576;2023-08-30T12:15:53;98839.69;;;20.28;61.69
17615;BME280;8926;49.720;6.576;2023-08-30T12:18:29;98842.41;;;20.20;61.89
17615;BME280;8926;49.720;6.576;2023-08-30T12:20:57;98836.78;;;20.07;60.95
17615;BME280;8926;49.720;6.576;2023-08-30T12:23:24;98849.72;;;20.02;61.85
17615;BME280;8926;49.720;6.576;2023-08-30T12:26:19;98843.13;;;19.98;61.84
17615;BME280;8926;49.720;6.576;2023-08-30T12:28:44;98830.66;;;20.07;62.14
17615;BME280;8926;49.720;6.576;2023-08-30T12:31:10;98833.78;;;20.18;61.89
17615;BME280;8926;49.720;6.576;2023-08-30T12:33:37;98830.13;;;20.19;61.31
17615;BME280;8926;49.720;6.576;2023-08-30T12:36:03;98830.81;;;20.13;61.05
17615;BME280;8926;49.720;6.576;2023-08-30T12:38:29;98824.34;;;20.16;60.85
17615;BME280;8926;49.720;6.576;2023-08-30T12:40:55;98830.47;;;20.16;60.60
17615;BME280;8926;49.720;6.576;2023-08-30T12:43:22;98822.69;;;20.15;61.02
17615;BME280;8926;49.720;6.576;2023-08-30T12:45:48;98827.97;;;20.15;61.07
17615;BME280;8926;49.720;6.576;2023-08-30T12:48:15;98825.34;;;20.07;61.06
17615;BME280;8926;49.720;6.576;2023-08-30T12:50:43;98824.84;;;20.03;61.51
17615;BME280;8926;49.720;6.576;2023-08-30T12:53:09;98831.81;;;20.12;61.86
17615;BME280;8926;49.720;6.576;2023-08-30T12:55:35;98831.78;;;20.20;61.35
17615;BME280;8926;49.720;6.576;2023-08-30T12:58:00;98828.13;;;20.21;61.75
17615;BME280;8926;49.720;6.576;2023-08-30T13:00:26;98827.50;;;20.11;62.53
17615;BME280;8926;49.720;6.576;2023-08-30T13:02:52;98832.13;;;20.17;62.09
17615;BME280;8926;49.720;6.576;2023-08-30T13:05:18;98833.44;;;20.21;62.19
17615;BME280;8926;49.720;6.576;2023-08-30T13:07:44;98834.78;;;20.09;62.43
17615;BME280;8926;49.720;6.576;2023-08-30T13:10:10;98857.03;;;20.00;63.86